sensor_id;sensor_type;location;lat;lon;timestamp;pressure;altitude;pressure_sealevel;temperature;humidity
20612;BME280;10465;42.686;23.364;2022-11-24T00:00:32;93921.56;;;10.27;76.13
20612;BME280;10465;42.686;23.364;2022-11-24T00:02:58;93847.97;;;9.75;75.50
20612;BME280;10465;42.686;23.364;2022-11-24T00:05:25;93856.22;;;9.74;76.59
20612;BME280;10465;42.686;23.364;2022-11-24T00:07:50;93892.06;;;9.83;76.66
20612;BME280;10465;42.686;23.364;2022-11-24T00:10:16;93884.53;;;9.73;76.39
20612;BME280;10465;42.686;23.364;2022-11-24T00:12:41;93910.19;;;9.94;76.77
20612;BME280;10465;42.686;23.364;2022-11-24T00:15:07;93878.97;;;9.66;77.56
20612;BME280;10465;42.686;23.364;2022-11-24T00:17:33;93933.38;;;10.09;77.08
20612;BME280;10465;42.686;23.364;2022-11-24T00:19:58;93939.75;;;10.08;77.14
20612;BME280;10465;42.686;23.364;2022-11-24T00:22:24;93883.53;;;9.36;78.20
20612;BME280;10465;42.686;23.364;2022-11-24T00:24:49;93914.78;;;9.55;78.55
20612;BME280;10465;42.686;23.364;2022-11-24T00:27:15;93933.00;;;9.77;78.27
20612;BME280;10465;42.686;23.364;2022-11-24T00:29:40;93927.72;;;9.77;78.24
20612;BME280;10465;42.686;23.364;2022-11-24T00:32:06;93868.91;;;9.38;77.64
20612;BME280;10465;42.686;23.364;2022-11-24T00:34:31;93959.44;;;9.98;77.46
20612;BME280;10465;42.686;23.364;2022-11-24T00:36:57;93936.97;;;10.04;77.30
20612;BME280;10465;42.686;23.364;2022-11-24T00:39:23;93877.75;;;9.63;76.20
20612;BME280;10465;42.686;23.364;2022-11-24T00:41:48;93921.03;;;9.50;77.79
20612;BME280;10465;42.686;23.364;2022-11-24T00:44:14;93949.47;;;9.53;79.25
20612;BME280;10465;42.686;23.364;2022-11-24T00:46:39;93929.22;;;9.36;79.33
20612;BME280;10465;42.686;23.364;2022-11-24T00:49:05;93948.94;;;9.60;78.63
20612;BME280;10465;42.686;23.364;2022-11-24T00:51:31;93903.56;;;9.37;78.55
20612;BME280;10465;42.686;23.364;2022-11-24T00:53:57;93954.13;;;9.56;79.14
20612;BME280;10465;42.686;23.364;2022-11-24T00:56:27;93964.03;;;9.59;79.25
20612;BME280;10465;42.686;23.364;2022-11-24T00:58:53;93960.31;;;9.60;78.53
20612;BME280;10465;42.686;23.364;2022-11-24T01:01:23;93952.75;;;9.71;78.56
20612;BME280;10465;42.686;23.364;2022-11-24T01:03:49;93970.13;;;9.51;79.06
20612;BME280;10465;42.686;23.364;2022-11-24T01:06:24;93913.22;;;9.33;78.50
20612;BME280;10465;42.686;23.364;2022-11-24T01:08:50;93960.13;;;9.65;78.63
20612;BME280;10465;42.686;23.364;2022-11-24T01:11:19;93930.84;;;9.50;78.78
20612;BME280;10465;42.686;23.364;2022-11-24T01:13:47;93948.50;;;9.58;78.87
20612;BME280;10465;42.686;23.364;2022-11-24T01:16:19;93959.69;;;9.55;78.63
20612;BME280;10465;42.686;23.364;2022-11-24T01:18:45;93950.88;;;9.51;79.01
20612;BME280;10465;42.686;23.364;2022-11-24T01:21:12;93898.59;;;9.06;79.61
20612;BME280;10465;42.686;23.364;2022-11-24T01:23:37;93923.19;;;9.27;79.61
20612;BME280;10465;42.686;23.364;2022-11-24T01:26:08;93876.44;;;8.98;79.38
20612;BME280;10465;42.686;23.364;2022-11-24T01:28:33;93909.22;;;9.27;79.44
20612;BME280;10465;42.686;23.364;2022-11-24T01:31:00;93896.28;;;9.04;79.42
20612;BME280;10465;42.686;23.364;2022-11-24T01:33:26;93921.53;;;9.14;79.99
20612;BME280;10465;42.686;23.364;2022-11-24T01:35:52;93962.25;;;9.43;80.26
20612;BME280;10465;42.686;23.364;2022-11-24T01:38:18;93947.19;;;9.43;79.83
20612;BME280;10465;42.686;23.364;2022-11-24T01:40:44;93954.41;;;9.55;79.08
20612;BME280;10465;42.686;23.364;2022-11-24T01:43:16;93961.47;;;9.72;78.88
20612;BME280;10465;42.686;23.364;2022-11-24T01:45:42;93917.22;;;9.39;79.28
20612;BME280;10465;42.686;23.364;2022-11-24T01:50:44;93936.97;;;9.62;78.42
20612;BME280;10465;42.686;23.364;2022-11-24T01:53:11;93905.97;;;9.51;77.96
20612;BME280;10465;42.686;23.364;2022-11-24T01:55:38;93962.72;;;9.95;77.71
20612;BME280;10465;42.686;23.364;2022-11-24T01:58:08;93962.00;;;9.86;78.06
20612;BME280;10465;42.686;23.364;2022-11-24T02:00:35;93930.41;;;9.69;78.38
20612;BME280;10465;42.686;23.364;2022-11-24T02:03:02;93943.88;;;9.76;78.50
20612;BME280;10465;42.686;23.364;2022-11-24T02:05:42;93961.25;;;9.85;78.64
20612;BME280;10465;42.686;23.364;2022-11-24T02:08:31;93959.59;;;9.72;78.64
20612;BME280;10465;42.686;23.364;2022-11-24T02:11:01;93959.28;;;9.74;78.88
20612;BME280;10465;42.686;23.364;2022-11-24T02:13:28;93925.56;;;9.50;79.11
20612;BME280;10465;42.686;23.364;2022-11-24T02:15:54;93960.38;;;9.73;79.20
20612;BME280;10465;42.686;23.364;2022-11-24T02:18:20;93953.88;;;9.70;79.20
20612;BME280;10465;42.686;23.364;2022-11-24T02:20:45;93972.69;;;9.69;79.54
20612;BME280;10465;42.686;23.364;2022-11-24T02:23:25;93935.91;;;9.34;79.73
20612;BME280;10465;42.686;23.364;2022-11-24T02:28:21;93978.19;;;9.55;80.42
20612;BME280;10465;42.686;23.364;2022-11-24T02:30:49;93976.38;;;9.47;80.76
20612;BME280;10465;42.686;23.364;2022-11-24T02:33:15;93947.00;;;9.19;80.52
20612;BME280;10465;42.686;23.364;2022-11-24T02:35:42;93972.59;;;9.27;80.79
20612;BME280;10465;42.686;23.364;2022-11-24T02:38:11;93969.50;;;9.25;81.31
20612;BME280;10465;42.686;23.364;2022-11-24T02:40:40;93976.13;;;9.31;81.49
20612;BME280;10465;42.686;23.364;2022-11-24T02:43:10;93961.28;;;9.18;81.38
20612;BME280;10465;42.686;23.364;2022-11-24T02:45:37;93970.28;;;9.25;80.94
20612;BME280;10465;42.686;23.364;2022-11-24T02:48:03;93896.56;;;8.73;80.42
20612;BME280;10465;42.686;23.364;2022-11-24T02:50:29;93951.75;;;8.96;80.32
20612;BME280;10465;42.686;23.364;2022-11-24T02:52:54;93975.16;;;9.06;80.97
20612;BME280;10465;42.686;23.364;2022-11-24T02:55:20;93970.53;;;8.94;81.02
20612;BME280;10465;42.686;23.364;2022-11-24T02:57:45;93968.28;;;8.75;81.46
20612;BME280;10465;42.686;23.364;2022-11-24T03:00:11;93972.28;;;8.81;81.28
20612;BME280;10465;42.686;23.364;2022-11-24T03:02:37;93966.09;;;8.77;80.71
20612;BME280;10465;42.686;23.364;2022-11-24T03:05:03;93914.50;;;8.41;81.08
20612;BME280;10465;42.686;23.364;2022-11-24T03:07:28;93946.91;;;8.59;81.95
20612;BME280;10465;42.686;23.364;2022-11-24T03:09:54;93976.00;;;8.89;81.59
20612;BME280;10465;42.686;23.364;2022-11-24T03:12:19;93967.78;;;8.82;82.04
20612;BME280;10465;42.686;23.364;2022-11-24T03:14:45;93970.75;;;8.72;82.14
20612;BME280;10465;42.686;23.364;2022-11-24T03:17:10;93963.63;;;8.72;81.87
20612;BME280;10465;42.686;23.364;2022-11-24T03:19:35;93938.06;;;8.55;82.01
20612;BME280;10465;42.686;23.364;2022-11-24T03:22:01;93932.00;;;8.46;82.47
20612;BME280;10465;42.686;23.364;2022-11-24T03:24:27;93946.41;;;8.57;82.47
20612;BME280;10465;42.686;23.364;2022-11-24T03:26:52;93951.84;;;8.61;82.32
20612;BME280;10465;42.686;23.364;2022-11-24T03:29:18;93998.94;;;8.97;82.84
20612;BME280;10465;42.686;23.364;2022-11-24T03:31:43;93969.81;;;8.76;82.57
20612;BME280;10465;42.686;23.364;2022-11-24T03:34:09;94008.41;;;8.98;82.37
20612;BME280;10465;42.686;23.364;2022-11-24T03:36:34;93993.84;;;8.92;82.43
20612;BME280;10465;42.686;23.364;2022-11-24T03:38:59;93993.22;;;8.86;82.80
20612;BME280;10465;42.686;23.364;2022-11-24T03:41:25;94003.44;;;8.97;82.57
20612;BME280;10465;42.686;23.364;2022-11-24T03:43:50;94016.00;;;9.08;82.09
20612;BME280;10465;42.686;23.364;2022-11-24T03:46:17;93987.94;;;8.86;82.45
20612;BME280;10465;42.686;23.364;2022-11-24T03:48:42;94021.31;;;9.00;82.84
20612;BME280;10465;42.686;23.364;2022-11-24T03:51:09;94000.06;;;8.79;83.57
20612;BME280;10465;42.686;23.364;2022-11-24T03:53:34;94006.88;;;8.88;82.52
20612;BME280;10465;42.686;23.364;2022-11-24T03:56:01;94024.72;;;9.00;83.66
20612;BME280;10465;42.686;23.364;2022-11-24T03:58:27;93994.50;;;8.72;83.84
20612;BME280;10465;42.686;23.364;2022-11-24T04:00:53;94026.31;;;8.75;83.93
20612;BME280;10465;42.686;23.364;2022-11-24T04:03:19;94033.75;;;8.82;83.50
20612;BME280;10465;42.686;23.364;2022-11-24T04:05:45;94038.56;;;8.80;83.67
20612;BME280;10465;42.686;23.364;2022-11-24T04:08:10;94045.41;;;8.81;83.38
20612;BME280;10465;42.686;23.364;2022-11-24T04:10:37;94051.13;;;8.83;83.63
20612;BME280;10465;42.686;23.364;2022-11-24T04:13:04;94013.00;;;8.63;84.02
20612;BME280;10465;42.686;23.364;2022-11-24T04:15:34;94045.06;;;8.91;83.46
20612;BME280;10465;42.686;23.364;2022-11-24T04:17:59;94042.41;;;8.91;83.50
20612;BME280;10465;42.686;23.364;2022-11-24T04:20:25;93994.84;;;8.53;83.31
20612;BME280;10465;42.686;23.364;2022-11-24T04:22:50;94020.25;;;8.66;83.35
20612;BME280;10465;42.686;23.364;2022-11-24T04:25:16;94031.44;;;8.80;82.72
20612;BME280;10465;42.686;23.364;2022-11-24T04:27:42;94010.03;;;8.64;82.19
20612;BME280;10465;42.686;23.364;2022-11-24T04:30:08;94032.53;;;8.79;82.41
20612;BME280;10465;42.686;23.364;2022-11-24T04:32:35;94034.38;;;8.87;82.12
20612;BME280;10465;42.686;23.364;2022-11-24T04:35:00;94040.13;;;8.81;81.95
20612;BME280;10465;42.686;23.364;2022-11-24T04:37:26;94019.34;;;8.53;82.93
20612;BME280;10465;42.686;23.364;2022-11-24T04:39:51;94071.59;;;9.03;82.93
20612;BME280;10465;42.686;23.364;2022-11-24T04:42:19;94070.00;;;9.11;82.58
20612;BME280;10465;42.686;23.364;2022-11-24T04:44:44;94007.06;;;8.83;82.59
20612;BME280;10465;42.686;23.364;2022-11-24T04:47:22;94060.97;;;9.29;82.37
20612;BME280;10465;42.686;23.364;2022-11-24T04:49:48;94066.22;;;9.38;82.29
20612;BME280;10465;42.686;23.364;2022-11-24T04:52:15;94010.72;;;9.08;82.29
20612;BME280;10465;42.686;23.364;2022-11-24T04:54:41;94031.91;;;9.29;81.50
20612;BME280;10465;42.686;23.364;2022-11-24T04:57:12;94062.44;;;9.56;81.16
20612;BME280;10465;42.686;23.364;2022-11-24T04:59:39;94029.91;;;9.26;80.52
20612;BME280;10465;42.686;23.364;2022-11-24T05:02:04;94085.25;;;9.61;80.51
20612;BME280;10465;42.686;23.364;2022-11-24T05:04:30;94059.81;;;9.48;80.93
20612;BME280;10465;42.686;23.364;2022-11-24T05:06:55;94077.75;;;9.72;80.29
20612;BME280;10465;42.686;23.364;2022-11-24T05:09:20;94075.66;;;9.56;80.54
20612;BME280;10465;42.686;23.364;2022-11-24T05:11:46;94078.28;;;9.48;81.35
20612;BME280;10465;42.686;23.364;2022-11-24T05:14:11;94060.66;;;9.31;80.80
20612;BME280;10465;42.686;23.364;2022-11-24T05:16:37;94053.50;;;9.31;81.14
20612;BME280;10465;42.686;23.364;2022-11-24T05:19:02;94089.16;;;9.55;81.26
20612;BME280;10465;42.686;23.364;2022-11-24T05:21:28;94057.38;;;9.34;81.57
20612;BME280;10465;42.686;23.364;2022-11-24T05:23:53;94091.31;;;9.61;81.21
20612;BME280;10465;42.686;23.364;2022-11-24T05:26:18;94071.97;;;9.40;82.03
20612;BME280;10465;42.686;23.364;2022-11-24T05:28:44;94055.88;;;9.24;82.52
20612;BME280;10465;42.686;23.364;2022-11-24T05:31:09;94081.16;;;9.34;83.95
20612;BME280;10465;42.686;23.364;2022-11-24T05:33:35;94034.94;;;9.02;82.48
20612;BME280;10465;42.686;23.364;2022-11-24T05:36:05;94059.00;;;9.09;82.55
20612;BME280;10465;42.686;23.364;2022-11-24T05:38:31;94093.53;;;9.51;82.62
20612;BME280;10465;42.686;23.364;2022-11-24T05:41:01;94075.38;;;9.40;82.00
20612;BME280;10465;42.686;23.364;2022-11-24T05:43:27;94102.53;;;9.50;82.49
20612;BME280;10465;42.686;23.364;2022-11-24T05:45:53;94059.47;;;9.20;82.62
20612;BME280;10465;42.686;23.364;2022-11-24T05:48:19;94106.72;;;9.51;83.26
20612;BME280;10465;42.686;23.364;2022-11-24T05:50:44;94110.16;;;9.51;82.22
20612;BME280;10465;42.686;23.364;2022-11-24T05:53:12;94082.88;;;9.30;82.46
20612;BME280;10465;42.686;23.364;2022-11-24T05:55:39;94107.38;;;9.39;83.31
20612;BME280;10465;42.686;23.364;2022-11-24T05:58:07;94093.25;;;9.35;83.11
20612;BME280;10465;42.686;23.364;2022-11-24T06:00:33;94085.97;;;9.23;82.58
20612;BME280;10465;42.686;23.364;2022-11-24T06:02:59;94117.69;;;9.32;82.53
20612;BME280;10465;42.686;23.364;2022-11-24T06:05:26;94106.66;;;9.21;82.56
20612;BME280;10465;42.686;23.364;2022-11-24T06:07:53;94046.50;;;8.71;82.15
20612;BME280;10465;42.686;23.364;2022-11-24T06:10:19;94124.84;;;9.05;82.54
20612;BME280;10465;42.686;23.364;2022-11-24T06:12:46;94099.25;;;8.88;82.03
20612;BME280;10465;42.686;23.364;2022-11-24T06:15:12;94095.84;;;8.88;82.38
20612;BME280;10465;42.686;23.364;2022-11-24T06:17:38;94132.16;;;9.17;82.85
20612;BME280;10465;42.686;23.364;2022-11-24T06:20:07;94119.72;;;9.18;81.83
20612;BME280;10465;42.686;23.364;2022-11-24T06:22:33;94129.81;;;9.15;83.19
20612;BME280;10465;42.686;23.364;2022-11-24T06:24:59;94093.81;;;8.94;83.24
20612;BME280;10465;42.686;23.364;2022-11-24T06:27:24;94130.44;;;9.12;82.88
20612;BME280;10465;42.686;23.364;2022-11-24T06:29:50;94145.19;;;9.13;83.27
20612;BME280;10465;42.686;23.364;2022-11-24T06:32:15;94142.09;;;9.20;83.24
20612;BME280;10465;42.686;23.364;2022-11-24T06:34:41;94120.66;;;9.04;83.32
20612;BME280;10465;42.686;23.364;2022-11-24T06:37:07;94153.09;;;9.31;83.50
20612;BME280;10465;42.686;23.364;2022-11-24T06:39:33;94169.06;;;9.34;83.68
20612;BME280;10465;42.686;23.364;2022-11-24T06:41:58;94144.56;;;9.25;83.67
20612;BME280;10465;42.686;23.364;2022-11-24T06:44:24;94126.88;;;9.08;84.32
20612;BME280;10465;42.686;23.364;2022-11-24T06:46:50;94174.06;;;9.45;84.17
20612;BME280;10465;42.686;23.364;2022-11-24T06:49:15;94154.66;;;9.32;83.53
20612;BME280;10465;42.686;23.364;2022-11-24T06:51:40;94159.63;;;9.33;82.97
20612;BME280;10465;42.686;23.364;2022-11-24T06:54:07;94189.75;;;9.41;83.01
20612;BME280;10465;42.686;23.364;2022-11-24T06:56:33;94185.25;;;9.33;82.95
20612;BME280;10465;42.686;23.364;2022-11-24T06:59:00;94197.97;;;9.48;82.88
20612;BME280;10465;42.686;23.364;2022-11-24T07:01:27;94183.38;;;9.42;82.83
20612;BME280;10465;42.686;23.364;2022-11-24T07:03:53;94204.31;;;9.56;83.23
20612;BME280;10465;42.686;23.364;2022-11-24T07:06:20;94172.50;;;9.35;82.89
20612;BME280;10465;42.686;23.364;2022-11-24T07:08:46;94215.03;;;9.59;83.00
20612;BME280;10465;42.686;23.364;2022-11-24T07:11:14;94210.22;;;9.61;83.11
20612;BME280;10465;42.686;23.364;2022-11-24T07:13:41;94223.84;;;9.72;81.92
20612;BME280;10465;42.686;23.364;2022-11-24T07:16:19;94181.34;;;9.39;82.20
20612;BME280;10465;42.686;23.364;2022-11-24T07:18:46;94220.00;;;9.70;81.88
20612;BME280;10465;42.686;23.364;2022-11-24T07:21:12;94210.19;;;9.70;81.12
20612;BME280;10465;42.686;23.364;2022-11-24T07:23:40;94235.66;;;9.83;81.36
20612;BME280;10465;42.686;23.364;2022-11-24T07:26:06;94200.75;;;9.60;80.42
20612;BME280;10465;42.686;23.364;2022-11-24T07:28:33;94216.09;;;9.76;80.29
20612;BME280;10465;42.686;23.364;2022-11-24T07:31:13;94224.31;;;9.83;80.69
20612;BME280;10465;42.686;23.364;2022-11-24T07:33:38;94136.47;;;9.22;80.12
20612;BME280;10465;42.686;23.364;2022-11-24T07:36:05;94174.06;;;9.36;80.60
20612;BME280;10465;42.686;23.364;2022-11-24T07:38:32;94202.13;;;9.66;80.91
20612;BME280;10465;42.686;23.364;2022-11-24T07:41:06;94233.91;;;9.96;80.41
20612;BME280;10465;42.686;23.364;2022-11-24T07:43:32;94252.88;;;10.07;80.50
20612;BME280;10465;42.686;23.364;2022-11-24T07:45:58;94218.22;;;9.91;79.81
20612;BME280;10465;42.686;23.364;2022-11-24T07:48:24;94258.59;;;10.18;79.51
20612;BME280;10465;42.686;23.364;2022-11-24T07:50:49;94248.50;;;10.11;79.83
20612;BME280;10465;42.686;23.364;2022-11-24T07:53:15;94257.09;;;9.90;80.19
20612;BME280;10465;42.686;23.364;2022-11-24T07:55:41;94269.06;;;10.05;81.02
20612;BME280;10465;42.686;23.364;2022-11-24T07:58:06;94247.50;;;9.77;80.61
20612;BME280;10465;42.686;23.364;2022-11-24T08:00:32;94281.22;;;9.98;80.53
20612;BME280;10465;42.686;23.364;2022-11-24T08:02:57;94238.19;;;9.62;80.58
20612;BME280;10465;42.686;23.364;2022-11-24T08:05:23;94261.50;;;9.78;81.18
20612;BME280;10465;42.686;23.364;2022-11-24T08:07:48;94285.41;;;9.90;80.36
20612;BME280;10465;42.686;23.364;2022-11-24T08:10:14;94197.81;;;9.27;80.58
20612;BME280;10465;42.686;23.364;2022-11-24T08:12:40;94268.19;;;9.66;80.82
20612;BME280;10465;42.686;23.364;2022-11-24T08:15:06;94259.19;;;9.59;80.57
20612;BME280;10465;42.686;23.364;2022-11-24T08:17:32;94270.69;;;9.54;81.67
20612;BME280;10465;42.686;23.364;2022-11-24T08:19:57;94281.25;;;9.63;80.74
20612;BME280;10465;42.686;23.364;2022-11-24T08:22:22;94297.41;;;9.70;80.17
20612;BME280;10465;42.686;23.364;2022-11-24T08:24:48;94287.94;;;9.60;80.93
20612;BME280;10465;42.686;23.364;2022-11-24T08:27:15;94287.94;;;9.52;80.33
20612;BME280;10465;42.686;23.364;2022-11-24T08:29:41;94272.69;;;9.31;79.62
20612;BME280;10465;42.686;23.364;2022-11-24T08:32:09;94289.50;;;9.53;80.47
20612;BME280;10465;42.686;23.364;2022-11-24T08:34:35;94312.78;;;9.59;80.22
20612;BME280;10465;42.686;23.364;2022-11-24T08:37:04;94319.03;;;9.37;80.21
20612;BME280;10465;42.686;23.364;2022-11-24T08:39:30;94293.81;;;9.14;81.41
20612;BME280;10465;42.686;23.364;2022-11-24T08:41:56;94305.03;;;9.20;81.52
20612;BME280;10465;42.686;23.364;2022-11-24T08:44:21;94304.88;;;9.25;81.14
20612;BME280;10465;42.686;23.364;2022-11-24T08:46:47;94313.25;;;9.35;80.21
20612;BME280;10465;42.686;23.364;2022-11-24T08:49:14;94335.03;;;9.50;79.41
20612;BME280;10465;42.686;23.364;2022-11-24T08:51:40;94343.28;;;9.48;79.21
20612;BME280;10465;42.686;23.364;2022-11-24T08:54:06;94293.34;;;9.03;78.77
20612;BME280;10465;42.686;23.364;2022-11-24T08:56:33;94292.88;;;9.01;79.28
20612;BME280;10465;42.686;23.364;2022-11-24T08:58:58;94324.47;;;9.24;78.61
20612;BME280;10465;42.686;23.364;2022-11-24T09:01:25;94348.84;;;9.29;78.14
20612;BME280;10465;42.686;23.364;2022-11-24T09:03:51;94321.75;;;9.06;77.20
20612;BME280;10465;42.686;23.364;2022-11-24T09:06:19;94337.78;;;9.10;76.13
20612;BME280;10465;42.686;23.364;2022-11-24T09:08:46;94339.63;;;9.09;76.28
20612;BME280;10465;42.686;23.364;2022-11-24T09:11:14;94347.59;;;9.27;75.78
20612;BME280;10465;42.686;23.364;2022-11-24T09:13:40;94298.16;;;8.93;75.40
20612;BME280;10465;42.686;23.364;2022-11-24T09:16:20;94366.06;;;9.27;75.13
20612;BME280;10465;42.686;23.364;2022-11-24T09:18:46;94362.81;;;9.38;74.07
20612;BME280;10465;42.686;23.364;2022-11-24T09:21:18;94361.91;;;9.43;74.09
20612;BME280;10465;42.686;23.364;2022-11-24T09:23:47;94360.34;;;9.51;74.20
20612;BME280;10465;42.686;23.364;2022-11-24T09:26:18;94348.69;;;9.43;73.27
20612;BME280;10465;42.686;23.364;2022-11-24T09:28:45;94356.31;;;9.62;72.92
20612;BME280;10465;42.686;23.364;2022-11-24T09:31:12;94365.66;;;9.68;72.48
20612;BME280;10465;42.686;23.364;2022-11-24T09:33:39;94378.25;;;9.71;71.76
20612;BME280;10465;42.686;23.364;2022-11-24T09:36:05;94336.41;;;9.38;70.47
20612;BME280;10465;42.686;23.364;2022-11-24T09:38:31;94321.59;;;9.11;70.74
20612;BME280;10465;42.686;23.364;2022-11-24T09:49:35;94326.78;;;9.34;70.90
20612;BME280;10465;42.686;23.364;2022-11-24T09:52:07;94334.72;;;9.43;70.75
20612;BME280;10465;42.686;23.364;2022-11-24T09:54:34;94349.94;;;9.54;69.17
20612;BME280;10465;42.686;23.364;2022-11-24T09:57:03;94379.00;;;9.63;69.06
20612;BME280;10465;42.686;23.364;2022-11-24T09:59:30;94342.97;;;9.50;69.00
20612;BME280;10465;42.686;23.364;2022-11-24T10:01:56;94311.38;;;9.19;69.21
20612;BME280;10465;42.686;23.364;2022-11-24T10:04:34;94378.41;;;9.49;67.72
20612;BME280;10465;42.686;23.364;2022-11-24T10:10:07;94381.31;;;9.30;68.49
20612;BME280;10465;42.686;23.364;2022-11-24T10:16:07;94388.72;;;9.19;68.84
20612;BME280;10465;42.686;23.364;2022-11-24T10:18:44;94382.34;;;9.11;68.78
20612;BME280;10465;42.686;23.364;2022-11-24T10:26:42;94395.09;;;9.18;69.36
20612;BME280;10465;42.686;23.364;2022-11-24T10:29:27;94389.22;;;9.21;69.00
20612;BME280;10465;42.686;23.364;2022-11-24T10:31:56;94367.22;;;8.95;68.76
20612;BME280;10465;42.686;23.364;2022-11-24T10:34:42;94387.00;;;9.14;68.31
20612;BME280;10465;42.686;23.364;2022-11-24T10:37:27;94383.72;;;9.00;68.18
20612;BME280;10465;42.686;23.364;2022-11-24T10:40:04;94364.50;;;8.69;68.34
20612;BME280;10465;42.686;23.364;2022-11-24T10:42:34;94386.22;;;9.05;68.38
20612;BME280;10465;42.686;23.364;2022-11-24T10:45:11;94385.81;;;8.81;68.69
20612;BME280;10465;42.686;23.364;2022-11-24T10:47:37;94398.63;;;8.65;69.00
20612;BME280;10465;42.686;23.364;2022-11-24T10:58:27;94396.84;;;8.83;67.82
20612;BME280;10465;42.686;23.364;2022-11-24T11:00:55;94403.50;;;8.72;68.55
20612;BME280;10465;42.686;23.364;2022-11-24T11:03:23;94401.31;;;8.74;68.49
20612;BME280;10465;42.686;23.364;2022-11-24T11:05:54;94392.28;;;8.66;68.19
20612;BME280;10465;42.686;23.364;2022-11-24T11:08:28;94389.44;;;8.62;67.96
20612;BME280;10465;42.686;23.364;2022-11-24T11:11:28;94410.38;;;8.90;68.34
20612;BME280;10465;42.686;23.364;2022-11-24T11:13:55;94409.91;;;8.88;67.12
20612;BME280;10465;42.686;23.364;2022-11-24T11:16:50;94317.81;;;8.07;66.58
20612;BME280;10465;42.686;23.364;2022-11-24T11:19:35;94423.72;;;8.85;66.61
20612;BME280;10465;42.686;23.364;2022-11-24T11:24:40;94418.22;;;8.73;66.49
20612;BME280;10465;42.686;23.364;2022-11-24T11:27:17;94390.53;;;8.61;65.83
20612;BME280;10465;42.686;23.364;2022-11-24T11:29:43;94392.94;;;8.40;66.33
20612;BME280;10465;42.686;23.364;2022-11-24T11:32:19;94382.69;;;8.39;66.50
20612;BME280;10465;42.686;23.364;2022-11-24T11:34:47;94353.50;;;8.13;66.68
20612;BME280;10465;42.686;23.364;2022-11-24T11:37:14;94328.38;;;8.15;66.89
20612;BME280;10465;42.686;23.364;2022-11-24T11:39:42;94423.38;;;8.78;67.27
20612;BME280;10465;42.686;23.364;2022-11-24T11:47:44;94389.66;;;8.75;66.16
20612;BME280;10465;42.686;23.364;2022-11-24T11:50:15;94383.41;;;8.62;65.60
20612;BME280;10465;42.686;23.364;2022-11-24T11:58:36;94428.81;;;8.81;65.75
20612;BME280;10465;42.686;23.364;2022-11-24T12:04:14;94358.81;;;8.44;65.24
20612;BME280;10465;42.686;23.364;2022-11-24T12:07:11;94427.00;;;8.90;65.76
20612;BME280;10465;42.686;23.364;2022-11-24T12:14:55;94428.06;;;9.21;64.54
20612;BME280;10465;42.686;23.364;2022-11-24T12:17:38;94388.72;;;9.10;64.77
20612;BME280;10465;42.686;23.364;2022-11-24T12:23:13;94373.53;;;9.16;62.93
20612;BME280;10465;42.686;23.364;2022-11-24T12:26:11;94425.22;;;9.74;62.04
20612;BME280;10465;42.686;23.364;2022-11-24T12:37:05;94433.38;;;9.47;60.67
20612;BME280;10465;42.686;23.364;2022-11-24T12:39:44;94436.78;;;9.30;61.82
20612;BME280;10465;42.686;23.364;2022-11-24T12:48:45;94447.88;;;9.49;61.14
20612;BME280;10465;42.686;23.364;2022-11-24T12:51:19;94445.31;;;9.27;61.99
20612;BME280;10465;42.686;23.364;2022-11-24T12:53:47;94446.78;;;9.10;62.28
20612;BME280;10465;42.686;23.364;2022-11-24T12:56:15;94452.41;;;9.09;62.39
20612;BME280;10465;42.686;23.364;2022-11-24T12:58:53;94442.28;;;9.11;61.54
20612;BME280;10465;42.686;23.364;2022-11-24T13:07:00;94443.31;;;9.32;60.75
20612;BME280;10465;42.686;23.364;2022-11-24T13:09:28;94446.41;;;9.34;61.17
20612;BME280;10465;42.686;23.364;2022-11-24T13:12:13;94436.56;;;9.18;61.14
20612;BME280;10465;42.686;23.364;2022-11-24T13:14:43;94434.53;;;8.75;62.49
20612;BME280;10465;42.686;23.364;2022-11-24T13:17:30;94419.50;;;8.75;63.56
20612;BME280;10465;42.686;23.364;2022-11-24T13:20:21;94458.59;;;9.04;62.79
20612;BME280;10465;42.686;23.364;2022-11-24T13:22:52;94454.66;;;9.33;61.70
20612;BME280;10465;42.686;23.364;2022-11-24T13:25:38;94399.38;;;8.97;60.38
20612;BME280;10465;42.686;23.364;2022-11-24T13:28:04;94435.88;;;8.95;60.24
20612;BME280;10465;42.686;23.364;2022-11-24T13:35:38;94461.91;;;9.27;60.30
20612;BME280;10465;42.686;23.364;2022-11-24T13:41:08;94452.16;;;9.28;59.54
20612;BME280;10465;42.686;23.364;2022-11-24T13:43:34;94466.03;;;9.42;59.34
20612;BME280;10465;42.686;23.364;2022-11-24T13:46:00;94461.06;;;9.01;58.96
20612;BME280;10465;42.686;23.364;2022-11-24T13:58:37;94468.19;;;9.00;59.58
20612;BME280;10465;42.686;23.364;2022-11-24T14:01:19;94475.84;;;9.10;59.83
20612;BME280;10465;42.686;23.364;2022-11-24T14:14:32;94453.69;;;8.89;59.07
20612;BME280;10465;42.686;23.364;2022-11-24T14:17:17;94488.78;;;8.89;59.44
20612;BME280;10465;42.686;23.364;2022-11-24T14:19:46;94480.88;;;8.89;59.85
20612;BME280;10465;42.686;23.364;2022-11-24T14:22:22;94492.13;;;9.04;59.71
20612;BME280;10465;42.686;23.364;2022-11-24T14:24:58;94479.06;;;8.99;60.05
20612;BME280;10465;42.686;23.364;2022-11-24T14:27:30;94473.59;;;8.95;59.16
20612;BME280;10465;42.686;23.364;2022-11-24T14:30:22;94463.03;;;8.95;59.46
20612;BME280;10465;42.686;23.364;2022-11-24T14:32:57;94495.25;;;9.06;60.02
20612;BME280;10465;42.686;23.364;2022-11-24T14:35:27;94489.72;;;9.16;59.37
20612;BME280;10465;42.686;23.364;2022-11-24T14:37:53;94496.72;;;9.21;58.72
20612;BME280;10465;42.686;23.364;2022-11-24T14:48:30;94457.13;;;8.89;58.94
20612;BME280;10465;42.686;23.364;2022-11-24T14:51:19;94486.38;;;9.02;58.41
20612;BME280;10465;42.686;23.364;2022-11-24T14:53:48;94460.50;;;8.81;59.02
20612;BME280;10465;42.686;23.364;2022-11-24T14:58:54;94450.66;;;8.73;59.15
20612;BME280;10465;42.686;23.364;2022-11-24T15:06:47;94500.94;;;8.99;59.45
20612;BME280;10465;42.686;23.364;2022-11-24T15:12:20;94466.16;;;8.66;59.92
20612;BME280;10465;42.686;23.364;2022-11-24T15:14:52;94480.84;;;8.81;59.63